Time;durP1;ratioP1;P1;durP2;ratioP2;P2;SDS_P1;SDS_P2;PMS_P1;PMS_P2;Temp;Humidity;BMP_temperature;BMP_pressure;BME280_temperature;BME280_humidity;BME280_pressure;Samples;Min_cycle;Max_cycle;Signal;HPM_P1;HPM_P2
2021/12/10 00:02:01;;;;;;;3.97;2.30;;;;;;;17.17;45.65;94379.75;10671119;27;20042;-79
2021/12/10 00:07:18;;;;;;;4.27;2.40;;;;;;;17.17;45.44;94363.34;10671141;27;20049;-80
2021/12/10 00:12:24;;;;;;;3.10;2.55;;;;;;;17.16;45.74;94362.53;10653473;27;20107;-77
2021/12/10 00:17:26;;;;;;;3.20;2.40;;;;;;;17.16;45.77;94346.88;10670651;27;20043;-78
2021/12/10 00:22:39;;;;;;;2.78;2.28;;;;;;;17.16;45.76;94343.50;10670577;27;20103;-78
2021/12/10 00:27:41;;;;;;;2.30;2.10;;;;;;;17.16;45.50;94338.28;10651685;27;20046;-79
2021/12/10 00:32:49;;;;;;;2.83;2.25;;;;;;;17.16;45.37;94326.03;10651242;27;20480;-78
2021/12/10 00:37:51;;;;;;;3.42;2.30;;;;;;;17.16;45.84;94315.59;10651540;27;20039;-80
2021/12/10 00:42:55;;;;;;;2.38;2.17;;;;;;;17.16;45.71;94309.59;10669284;27;20063;-78
2021/12/10 00:47:57;;;;;;;3.72;2.38;;;;;;;17.17;45.67;94295.56;10668451;27;20038;-80
2021/12/10 00:52:59;;;;;;;3.58;2.40;;;;;;;17.16;45.82;94279.09;10665770;27;20047;-80
2021/12/10 00:58:01;;;;;;;2.50;2.00;;;;;;;17.16;45.67;94268.66;10669105;27;20099;-77
2021/12/10 01:03:04;;;;;;;2.58;2.38;;;;;;;17.16;45.60;94278.31;10650252;27;20402;-74
2021/12/10 01:08:06;;;;;;;2.70;2.38;;;;;;;17.16;45.45;94257.47;10668419;27;20078;-75
2021/12/10 01:13:13;;;;;;;2.72;2.20;;;;;;;17.14;45.25;94252.50;10668344;27;20050;-75
2021/12/10 01:23:52;;;;;;;2.45;2.25;;;;;;;17.15;45.47;94235.81;10667885;27;20400;-77
2021/12/10 01:28:57;;;;;;;2.35;2.15;;;;;;;17.13;45.86;94222.25;10667708;27;20388;-77
2021/12/10 01:33:59;;;;;;;2.17;1.98;;;;;;;17.16;45.90;94200.09;10667239;27;20047;-76
2021/12/10 01:39:07;;;;;;;2.10;1.90;;;;;;;17.17;46.08;94199.84;10667656;27;20039;-78
2021/12/10 01:44:17;;;;;;;2.60;1.83;;;;;;;17.20;45.64;94188.94;10649243;27;20042;-76
2021/12/10 01:49:19;;;;;;;2.00;1.90;;;;;;;17.22;45.59;94183.50;10665570;27;20369;-77
2021/12/10 01:54:31;;;;;;;2.20;1.92;;;;;;;17.23;45.41;94161.59;10666842;27;20043;-78
2021/12/10 01:59:34;;;;;;;2.17;2.00;;;;;;;17.25;45.53;94156.16;10666683;27;20366;-78
2021/12/10 02:04:39;;;;;;;2.17;1.98;;;;;;;17.26;45.69;94149.88;10646897;27;20035;-78
2021/12/10 02:09:41;;;;;;;2.33;2.00;;;;;;;17.26;45.32;94137.66;10666218;27;20046;-78
2021/12/10 02:14:43;;;;;;;2.30;1.98;;;;;;;17.27;45.55;94126.16;10665527;27;20066;-81
2021/12/10 02:19:45;;;;;;;1.83;1.73;;;;;;;17.28;45.22;94106.13;10666149;27;20035;-81
2021/12/10 02:24:46;;;;;;;2.17;1.92;;;;;;;17.27;44.76;94088.88;10666167;27;20060;-80
2021/12/10 02:29:48;;;;;;;2.50;1.90;;;;;;;17.27;45.06;94083.66;10665581;27;20053;-78
2021/12/10 02:34:50;;;;;;;1.80;1.70;;;;;;;17.27;45.05;94076.63;10665415;27;20433;-78
2021/12/10 02:39:52;;;;;;;2.25;2.05;;;;;;;17.27;45.15;94055.00;10665529;27;20049;-81
2021/12/10 02:44:53;;;;;;;2.08;1.88;;;;;;;17.25;44.77;94044.03;10665316;27;20095;-81
2021/12/10 02:49:55;;;;;;;2.38;1.90;;;;;;;17.23;44.65;94033.84;10663537;27;20066;-80
2021/12/10 02:54:58;;;;;;;1.88;1.73;;;;;;;17.23;44.68;94026.03;10664783;27;20043;-80
2021/12/10 03:00:00;;;;;;;2.33;1.85;;;;;;;17.22;44.88;94011.41;10664312;27;20050;-78
2021/12/10 03:05:05;;;;;;;2.17;1.80;;;;;;;17.20;44.33;94003.06;10664918;27;20080;-80
2021/12/10 03:10:12;;;;;;;1.90;1.75;;;;;;;17.18;44.21;93998.09;10664604;27;20047;-77
2021/12/10 03:15:16;;;;;;;1.60;1.50;;;;;;;17.16;44.29;93989.72;10665059;27;20502;-81
2021/12/10 03:20:21;;;;;;;1.73;1.60;;;;;;;17.14;44.59;93983.97;10673060;27;20042;-79
2021/12/10 03:25:23;;;;;;;1.65;1.55;;;;;;;17.13;44.68;93976.38;10672777;27;20095;-80
2021/12/10 03:30:29;;;;;;;2.67;1.70;;;;;;;17.11;44.83;93971.41;10654049;27;20046;-80
2021/12/10 03:35:35;;;;;;;2.20;1.55;;;;;;;17.10;44.78;93963.84;10672916;27;20072;-77
2021/12/10 03:40:37;;;;;;;1.73;1.50;;;;;;;17.08;44.78;93956.28;10672052;27;20521;-81
2021/12/10 03:45:45;;;;;;;2.10;1.75;;;;;;;17.08;44.97;93955.50;10670632;27;20095;-78
2021/12/10 03:50:48;;;;;;;;;;;;;;;17.08;44.57;93937.25;10671109;27;20100;-79
2021/12/10 03:55:50;;;;;;;1.50;1.40;;;;;;;17.06;44.87;93927.06;10669969;27;20432;-81
2021/12/10 04:00:56;;;;;;;2.33;1.50;;;;;;;17.06;44.62;93921.09;10671282;27;20039;-80
2021/12/10 04:05:58;;;;;;;1.65;1.55;;;;;;;17.05;44.90;93920.28;10670857;27;20087;-80
2021/12/10 04:11:01;;;;;;;1.88;1.58;;;;;;;17.02;44.80;93900.72;10653171;27;20035;-81
2021/12/10 04:16:03;;;;;;;1.65;1.38;;;;;;;17.00;44.96;93894.19;10670979;27;20080;-80
2021/12/10 04:21:06;;;;;;;1.73;1.50;;;;;;;16.99;45.00;93884.78;10652365;27;20041;-78
2021/12/10 04:26:10;;;;;;;1.73;1.52;;;;;;;16.98;45.19;93883.22;10670619;27;20130;-75
2021/12/10 04:31:13;;;;;;;3.05;1.80;;;;;;;16.96;45.05;93874.88;10669583;27;20058;-79
2021/12/10 04:36:17;;;;;;;2.45;1.40;;;;;;;16.96;45.22;93869.69;10669771;27;20119;-77
2021/12/10 04:41:19;;;;;;;3.85;1.30;;;;;;;16.94;45.36;93861.31;10669514;27;20038;-77
2021/12/10 04:46:21;;;;;;;1.58;1.35;;;;;;;16.94;44.97;93856.09;10670036;27;20039;-78
2021/12/10 04:51:30;;;;;;;2.10;1.30;;;;;;;16.92;45.11;93855.56;10669497;27;20035;-76
2021/12/10 04:56:35;;;;;;;4.05;1.40;;;;;;;16.90;45.09;93853.22;10669504;27;20058;-77
2021/12/10 05:01:37;;;;;;;1.35;1.25;;;;;;;16.90;45.17;93839.41;10669560;27;20050;-78
2021/12/10 05:06:40;;;;;;;1.77;1.38;;;;;;;16.89;44.93;93814.38;10668905;27;20043;-78
2021/12/10 05:11:42;;;;;;;2.45;1.42;;;;;;;16.85;44.90;93781.00;10668956;27;20062;-76
2021/12/10 05:16:46;;;;;;;3.78;1.42;;;;;;;16.85;44.81;93794.03;10668176;27;20377;-77
2021/12/10 05:21:49;;;;;;;2.95;1.33;;;;;;;16.84;45.22;93799.47;10668423;27;20381;-77
2021/12/10 05:26:51;;;;;;;2.47;1.20;;;;;;;16.83;45.05;93788.25;10668206;27;20046;-78
2021/12/10 05:31:55;;;;;;;3.90;1.25;;;;;;;16.82;45.23;93781.47;10667982;27;20169;-78
2021/12/10 05:36:58;;;;;;;2.45;1.30;;;;;;;16.81;45.29;93785.13;10667749;27;20050;-75
2021/12/10 05:42:03;;;;;;;4.20;1.20;;;;;;;16.80;45.10;93773.13;10667619;27;20068;-77
2021/12/10 05:47:06;;;;;;;1.98;1.10;;;;;;;16.77;45.10;93765.81;10667190;27;20096;-78
2021/12/10 05:52:08;;;;;;;2.38;1.50;;;;;;;16.76;45.35;93766.84;10666748;27;20138;-77
2021/12/10 05:57:10;;;;;;;2.05;1.20;;;;;;;16.75;44.90;93762.69;10666518;27;20045;-78
2021/12/10 06:02:12;;;;;;;4.28;1.30;;;;;;;16.75;45.04;93751.47;10666565;27;20446;-78
2021/12/10 06:07:14;;;;;;;1.67;1.25;;;;;;;16.74;45.15;93747.31;10666622;27;20066;-78
2021/12/10 06:12:16;;;;;;;0.90;0.90;;;;;;;16.72;45.23;93734.53;10666318;27;20038;-79
2021/12/10 06:17:18;;;;;;;3.65;1.10;;;;;;;16.72;44.38;93715.50;10665637;27;20047;-78
2021/12/10 06:22:19;;;;;;;3.42;1.50;;;;;;;16.71;45.25;93708.72;10665468;27;20034;-76
2021/12/10 06:27:21;;;;;;;1.25;1.15;;;;;;;16.69;45.46;93701.94;10665447;27;20377;-78
2021/12/10 06:32:23;;;;;;;4.45;1.40;;;;;;;16.67;45.64;93691.00;10665178;27;20069;-74
2021/12/10 06:37:24;;;;;;;2.05;1.20;;;;;;;16.66;45.56;93676.41;10646250;27;20047;-79
2021/12/10 06:42:26;;;;;;;2.55;1.00;;;;;;;16.66;45.87;93667.81;10665384;27;20043;-78
2021/12/10 06:47:36;;;;;;;1.30;1.20;;;;;;;16.64;45.21;93655.03;10664690;27;20117;-81
2021/12/10 06:52:37;;;;;;;1.35;0.95;;;;;;;16.64;45.50;93660.25;10654587;27;20058;-82
2021/12/10 06:57:39;;;;;;;5.88;2.05;;;;;;;16.65;47.05;93663.63;10666463;27;20039;-76
2021/12/10 07:02:41;;;;;;;19.50;2.90;;;;;;;16.66;48.65;93660.00;10672401;27;20038;-83
2021/12/10 07:07:44;;;;;;;10.00;2.72;;;;;;;16.68;48.02;93644.88;10677836;27;20043;-81
2021/12/10 07:12:46;;;;;;;8.73;2.40;;;;;;;16.74;47.17;93635.28;10674743;27;20480;-81
2021/12/10 07:17:51;;;;;;;7.35;2.08;;;;;;;16.75;47.10;93634.22;10674426;27;20403;-81
2021/12/10 07:22:53;;;;;;;7.00;2.50;;;;;;;16.78;47.21;93625.91;10673793;27;20035;-80
2021/12/10 07:27:56;;;;;;;9.68;2.65;;;;;;;16.80;47.25;93629.81;10674836;27;20341;-91
2021/12/10 07:32:58;;;;;;;8.00;2.40;;;;;;;16.82;46.80;93630.34;10629879;27;20051;-84
2021/12/10 07:38:00;;;;;;;8.80;2.63;;;;;;;16.83;46.69;93633.72;10630353;27;20051;-74
2021/12/10 07:43:03;;;;;;;17.58;2.28;;;;;;;16.83;46.76;93621.50;10632497;27;20481;-80
2021/12/10 07:48:09;;;;;;;6.75;2.08;;;;;;;16.83;46.86;93605.88;10626846;27;20039;-78
2021/12/10 07:53:11;;;;;;;15.13;2.30;;;;;;;16.84;46.70;93593.63;10621867;27;20043;-86
2021/12/10 07:58:13;;;;;;;11.63;2.53;;;;;;;16.84;47.12;93591.78;10631048;27;20043;-85
2021/12/10 08:03:16;;;;;;;9.23;2.08;;;;;;;16.85;47.58;93582.16;10628812;27;20039;-86
2021/12/10 08:08:18;;;;;;;7.32;2.17;;;;;;;16.84;47.41;93580.59;10626551;27;20047;-87
2021/12/10 08:13:22;;;;;;;6.07;2.08;;;;;;;16.84;47.32;93577.97;10621130;27;20493;-86
2021/12/10 08:18:24;;;;;;;4.85;2.15;;;;;;;16.85;47.47;93569.13;10625281;27;20043;-84
2021/12/10 08:23:29;;;;;;;9.15;1.80;;;;;;;16.85;47.77;93563.94;10619547;27;20061;-86
2021/12/10 08:28:33;;;;;;;8.15;2.10;;;;;;;16.85;47.11;93562.13;10625261;27;20092;-86
2021/12/10 08:33:34;;;;;;;5.10;1.63;;;;;;;16.86;46.83;93553.28;10642140;27;20050;-85
2021/12/10 08:38:38;;;;;;;8.52;1.92;;;;;;;16.88;46.84;93541.78;10658680;27;20039;-86
2021/12/10 08:43:42;;;;;;;8.95;1.83;;;;;;;16.86;47.12;93532.44;10664553;27;20039;-86
2021/12/10 08:48:45;;;;;;;8.10;1.80;;;;;;;16.87;47.62;93548.84;10665169;27;20038;-86
2021/12/10 08:53:47;;;;;;;5.15;1.90;;;;;;;16.88;47.13;93547.00;10666274;27;20137;-86
2021/12/10 08:58:49;;;;;;;3.53;1.80;;;;;;;16.88;47.67;93534.78;10664717;27;20426;-87
2021/12/10 09:03:57;;;;;;;4.80;1.63;;;;;;;16.87;47.78;93535.81;10662599;27;20031;-85
2021/12/10 09:08:59;;;;;;;5.80;1.85;;;;;;;16.88;47.57;93533.97;10657192;27;20042;-84
2021/12/10 09:14:00;;;;;;;6.47;2.10;;;;;;;16.89;47.91;93519.94;10655161;27;20137;-84
2021/12/10 09:19:09;;;;;;;3.17;1.50;;;;;;;16.89;48.18;93501.69;10640132;27;20043;-86
2021/12/10 09:24:14;;;;;;;3.78;1.50;;;;;;;16.89;48.26;93499.84;10640945;27;20051;-83
2021/12/10 09:29:17;;;;;;;4.95;1.58;;;;;;;16.90;48.36;93493.59;10646917;27;20034;-83
2021/12/10 09:34:19;;;;;;;5.78;1.48;;;;;;;16.90;48.36;93488.41;10601561;27;20051;-86
2021/12/10 09:39:22;;;;;;;3.03;1.67;;;;;;;16.91;48.24;93489.97;10588464;27;20043;-87
2021/12/10 09:44:24;;;;;;;4.70;1.70;;;;;;;16.91;48.60;93479.56;10607499;27;20042;-86
2021/12/10 09:49:27;;;;;;;2.53;1.50;;;;;;;16.92;48.54;93469.91;10566538;27;20433;-85
2021/12/10 09:54:32;;;;;;;2.45;1.45;;;;;;;16.92;48.35;93470.69;10615841;27;20054;-82
2021/12/10 09:59:35;;;;;;;5.97;1.60;;;;;;;16.92;48.69;93460.25;10632464;27;20031;-84
2021/12/10 10:04:40;;;;;;;4.28;1.63;;;;;;;16.90;48.88;93448.53;10634959;27;20035;-89
2021/12/10 10:09:46;;;;;;;6.60;1.67;;;;;;;16.90;48.96;93432.91;10626424;27;20103;-93
2021/12/10 10:14:48;;;;;;;7.20;1.60;;;;;;;16.91;48.94;93418.81;10626084;27;20404;-91
2021/12/10 10:19:51;;;;;;;6.82;1.90;;;;;;;16.91;48.91;93395.38;10614005;27;20043;-89
2021/12/10 10:24:54;;;;;;;6.75;2.15;;;;;;;16.92;48.78;93379.47;10624573;27;20043;-90
2021/12/10 10:30:11;;;;;;;3.42;1.90;;;;;;;16.93;48.96;93355.00;10625582;27;20505;-88
2021/12/10 10:35:18;;;;;;;3.10;1.70;;;;;;;16.96;48.81;93353.69;10606246;27;20096;-81
2021/12/10 10:40:24;;;;;;;7.15;2.15;;;;;;;16.96;48.69;93332.84;10598572;27;20476;-85
2021/12/10 10:45:30;;;;;;;4.72;2.03;;;;;;;16.98;48.89;93328.16;10591178;27;20442;-85
2021/12/10 10:50:58;;;;;;;3.53;1.73;;;;;;;16.99;48.52;93345.31;10611680;27;20047;-85
2021/12/10 10:56:07;;;;;;;3.53;2.10;;;;;;;17.02;48.58;93355.22;10594882;28;20039;-85
2021/12/10 11:01:24;;;;;;;2.22;1.67;;;;;;;17.02;48.61;93360.44;10603097;28;20085;-85
2021/12/10 11:06:49;;;;;;;4.28;2.03;;;;;;;17.02;48.52;93347.41;10579788;28;20052;-86
2021/12/10 11:11:55;;;;;;;6.57;2.30;;;;;;;17.04;48.66;93337.53;10590434;28;20047;-86
2021/12/10 11:17:11;;;;;;;11.20;2.03;;;;;;;17.04;48.59;93338.28;10577946;28;20044;-85
2021/12/10 11:22:28;;;;;;;3.40;1.70;;;;;;;17.08;48.27;93333.31;10593922;28;20047;-86
2021/12/10 11:27:37;;;;;;;2.88;1.90;;;;;;;17.08;48.29;93311.69;10587571;28;20044;-85
2021/12/10 11:32:42;;;;;;;5.40;2.00;;;;;;;17.10;47.90;93310.41;10576990;28;20040;-86
2021/12/10 11:37:43;;;;;;;2.95;1.52;;;;;;;17.12;48.06;93308.31;10581969;27;20044;-79
2021/12/10 11:42:48;;;;;;;8.10;2.20;;;;;;;17.13;48.48;93299.44;10583743;27;20115;-85
2021/12/10 11:47:52;;;;;;;11.65;3.08;;;;;;;17.16;48.71;93298.91;10555936;28;20043;-83
2021/12/10 11:53:10;;;;;;;35.25;4.32;;;;;;;17.19;48.57;93300.19;10585818;27;20047;-78
2021/12/10 11:58:15;;;;;;;37.90;5.40;;;;;;;17.26;49.52;93295.50;10612697;27;20047;-79
2021/12/10 12:03:17;;;;;;;31.65;6.20;;;;;;;17.29;51.93;93287.16;10585801;27;20089;-80
2021/12/10 12:08:19;;;;;;;32.88;5.47;;;;;;;17.41;51.22;93285.00;10577058;27;20043;-75
2021/12/10 12:13:29;;;;;;;26.27;6.47;;;;;;;17.52;50.89;93290.94;10604311;27;20480;-82
2021/12/10 12:18:36;;;;;;;26.55;5.35;;;;;;;17.62;49.97;93292.72;10619552;27;20032;-81
2021/12/10 12:29:09;;;;;;;16.83;5.32;;;;;;;17.81;49.52;93303.31;10623124;27;20452;-78
2021/12/10 12:34:18;;;;;;;15.77;4.57;;;;;;;17.91;48.57;93307.72;10626946;27;20051;-73
2021/12/10 12:39:40;;;;;;;21.00;5.60;;;;;;;17.99;48.56;93311.59;10586270;27;20051;-74
2021/12/10 12:44:42;;;;;;;10.82;3.70;;;;;;;18.00;48.24;93313.94;10600466;27;20039;-74
2021/12/10 12:50:22;;;;;;;21.38;4.60;;;;;;;18.00;47.89;93310.56;10608858;27;20373;-75
2021/12/10 12:55:45;;;;;;;15.30;4.00;;;;;;;17.98;47.83;93310.84;10616774;27;20047;-75
2021/12/10 13:00:51;;;;;;;20.58;4.00;;;;;;;17.97;47.74;93311.09;10609374;27;20568;-77
2021/12/10 13:06:12;;;;;;;10.45;4.25;;;;;;;17.95;47.54;93303.53;10600977;27;20104;-75
2021/12/10 13:12:10;;;;;;;13.40;4.20;;;;;;;17.91;47.53;93316.38;10577267;27;20110;-75
2021/12/10 13:17:31;;;;;;;14.02;3.80;;;;;;;17.86;47.46;93318.19;10588870;27;20081;-74
2021/12/10 13:22:33;;;;;;;14.32;3.63;;;;;;;17.82;47.17;93330.22;10612894;27;20031;-74
2021/12/10 13:27:41;;;;;;;14.68;3.58;;;;;;;17.77;47.32;93339.63;10590693;27;20374;-74
2021/12/10 13:32:48;;;;;;;10.75;3.40;;;;;;;17.72;47.48;93336.25;10613149;27;20124;-74
2021/12/10 13:37:52;;;;;;;14.88;3.55;;;;;;;17.69;47.50;93342.00;10618168;27;20045;-75
2021/12/10 13:42:54;;;;;;;10.93;3.13;;;;;;;17.64;47.67;93350.66;10622721;27;20043;-74
2021/12/10 13:48:04;;;;;;;6.40;3.20;;;;;;;17.63;47.54;93350.91;10615762;27;20050;-75
2021/12/10 13:53:26;;;;;;;9.82;3.33;;;;;;;17.58;47.63;93360.31;10601350;27;20082;-74
2021/12/10 13:58:47;;;;;;;5.95;2.90;;;;;;;17.55;47.62;93354.84;10622256;27;20104;-75
2021/12/10 14:04:10;;;;;;;8.13;3.20;;;;;;;17.51;47.78;93362.41;10616942;27;20067;-75
2021/12/10 14:09:37;;;;;;;9.30;3.28;;;;;;;17.47;47.78;93371.06;10620114;27;20442;-74
2021/12/10 14:14:56;;;;;;;8.05;2.90;;;;;;;17.43;47.82;93383.03;10620252;27;20046;-74
2021/12/10 14:20:12;;;;;;;6.60;3.05;;;;;;;17.38;47.82;93395.03;10618037;27;20039;-74
2021/12/10 14:25:36;;;;;;;6.43;3.00;;;;;;;17.34;47.95;93385.41;10620696;27;20036;-75
2021/12/10 14:30:58;;;;;;;10.27;3.33;;;;;;;17.31;47.91;93386.72;10611278;27;20051;-74
2021/12/10 14:36:08;;;;;;;7.05;3.10;;;;;;;17.26;48.21;93389.34;10586114;27;20138;-74
2021/12/10 14:41:25;;;;;;;9.05;2.95;;;;;;;17.22;48.18;93393.53;10604324;27;20395;-74
2021/12/10 14:46:33;;;;;;;4.93;3.25;;;;;;;17.18;48.25;93405.50;10595531;27;20137;-74
2021/12/10 14:52:18;;;;;;;8.68;3.45;;;;;;;17.14;48.36;93414.91;10570753;27;20075;-75
2021/12/10 14:57:55;;;;;;;6.63;3.08;;;;;;;17.08;48.46;93414.13;10595690;27;20075;-73
2021/12/10 15:03:20;;;;;;;5.72;3.08;;;;;;;17.04;48.58;93418.31;10593705;27;20112;-75
2021/12/10 15:08:56;;;;;;;7.45;3.28;;;;;;;17.02;48.94;93425.59;10607302;27;20489;-82
2021/12/10 15:14:19;;;;;;;7.93;2.97;;;;;;;16.96;49.19;93424.81;10621017;27;20046;-81
2021/12/10 15:19:36;;;;;;;3.88;2.88;;;;;;;16.94;49.49;93419.09;10618523;27;20107;-82
2021/12/10 15:24:54;;;;;;;4.78;2.80;;;;;;;16.91;49.47;93430.03;10628121;27;20035;-83
2021/12/10 15:30:08;;;;;;;4.63;2.50;;;;;;;16.88;49.49;93434.97;10611603;27;20078;-83
2021/12/10 15:35:26;;;;;;;4.75;3.00;;;;;;;16.84;49.76;93430.25;10612150;27;20471;-85
2021/12/10 15:40:40;;;;;;;5.43;3.00;;;;;;;16.82;49.66;93442.75;10611691;27;20046;-84
2021/12/10 15:45:48;;;;;;;4.10;2.83;;;;;;;16.79;49.72;93443.28;10628458;27;20115;-84
2021/12/10 15:50:58;;;;;;;4.10;2.83;;;;;;;16.77;49.67;93445.38;10610973;27;20039;-85
2021/12/10 15:56:08;;;;;;;5.35;2.60;;;;;;;16.76;49.96;93456.81;10611036;27;20050;-86
2021/12/10 16:01:20;;;;;;;6.05;3.00;;;;;;;16.74;49.67;93453.69;10629221;27;20481;-86
2021/12/10 16:06:24;;;;;;;4.30;2.85;;;;;;;16.72;49.62;93463.59;10610470;27;20104;-86
2021/12/10 16:11:28;;;;;;;3.15;2.30;;;;;;;16.70;49.51;93473.47;10628627;27;20039;-86
2021/12/10 16:16:36;;;;;;;6.95;2.80;;;;;;;16.67;49.77;93459.16;10628533;27;20047;-85
2021/12/10 16:21:44;;;;;;;3.85;2.50;;;;;;;16.65;49.86;93474.25;10610394;27;20065;-85
2021/12/10 16:26:47;;;;;;;;;;;;;;;16.63;49.70;93484.16;10627329;27;20477;-84
2021/12/10 16:31:56;;;;;;;2.97;2.30;;;;;;;16.61;49.72;93494.06;10628747;27;20287;-85
2021/12/10 16:37:00;;;;;;;2.88;2.42;;;;;;;16.57;49.72;93500.81;10670634;27;20074;-86
2021/12/10 16:42:03;;;;;;;3.05;2.22;;;;;;;16.58;49.80;93512.03;10670335;27;20068;-85
2021/12/10 16:47:09;;;;;;;3.63;2.50;;;;;;;16.53;49.93;93515.41;10651665;27;20042;-85
2021/12/10 16:52:20;;;;;;;3.50;2.50;;;;;;;16.53;50.03;93530.22;10651366;27;20074;-84
2021/12/10 16:57:40;;;;;;;3.15;2.33;;;;;;;16.50;50.00;93527.09;10669460;27;20470;-83
2021/12/10 17:02:43;;;;;;;2.25;2.00;;;;;;;16.50;50.16;93542.72;10669466;27;20050;-84
2021/12/10 17:07:47;;;;;;;2.63;2.03;;;;;;;16.48;49.96;93555.22;10669152;27;20457;-83
2021/12/10 17:12:48;;;;;;;2.90;2.10;;;;;;;16.47;50.05;93555.47;10669267;27;20068;-84
2021/12/10 17:17:55;;;;;;;3.38;1.98;;;;;;;16.46;49.93;93566.91;10633578;27;20050;-84
2021/12/10 17:22:59;;;;;;;3.15;1.98;;;;;;;16.44;49.96;93576.81;10667798;27;20087;-84
2021/12/10 17:28:09;;;;;;;2.08;1.88;;;;;;;16.44;49.88;93584.63;10668204;27;20031;-85
2021/12/10 17:33:18;;;;;;;2.20;2.00;;;;;;;16.43;50.08;93586.44;10667827;27;20412;-84
2021/12/10 17:38:22;;;;;;;2.58;2.03;;;;;;;16.42;49.97;93595.28;10649097;27;20496;-84
2021/12/10 17:43:28;;;;;;;1.98;1.67;;;;;;;16.41;49.96;93601.53;10667491;27;20047;-85
2021/12/10 17:48:36;;;;;;;2.25;1.88;;;;;;;16.40;49.87;93607.78;10648753;27;20050;-85
2021/12/10 17:53:41;;;;;;;2.08;1.88;;;;;;;16.39;49.89;93614.03;10667048;27;20409;-85
2021/12/10 17:58:48;;;;;;;2.53;1.80;;;;;;;16.38;50.03;93629.91;10666879;27;20610;-84
2021/12/10 18:03:53;;;;;;;2.08;1.80;;;;;;;16.36;50.08;93632.75;10666883;27;20043;-84
2021/12/10 18:09:07;;;;;;;1.95;1.75;;;;;;;16.33;49.88;93639.22;10648749;27;20047;-85
2021/12/10 18:14:09;;;;;;;3.13;1.90;;;;;;;16.31;49.97;93641.31;10666416;27;20047;-84
2021/12/10 18:19:12;;;;;;;2.10;1.80;;;;;;;16.30;49.98;93647.56;10630860;27;20031;-86
2021/12/10 18:24:18;;;;;;;1.80;1.70;;;;;;;16.30;49.98;93654.56;10666171;27;20049;-84
2021/12/10 18:29:36;;;;;;;2.42;1.80;;;;;;;16.30;50.05;93662.38;10665989;27;20071;-84
2021/12/10 18:34:41;;;;;;;2.22;1.70;;;;;;;16.26;50.09;93671.75;10665745;27;20038;-85
2021/12/10 18:39:48;;;;;;;2.17;1.90;;;;;;;16.24;49.91;93666.78;10647325;27;20050;-85
2021/12/10 18:45:13;;;;;;;1.73;1.63;;;;;;;16.25;50.02;93685.78;10647203;27;20054;-85
2021/12/10 18:50:37;;;;;;;1.60;1.50;;;;;;;16.24;49.91;93697.22;10646299;27;20050;-84
2021/12/10 18:55:45;;;;;;;1.80;1.60;;;;;;;16.23;49.87;93706.88;10665183;27;20047;-86
2021/12/10 19:01:05;;;;;;;1.75;1.50;;;;;;;16.23;49.99;93708.69;10646727;27;20438;-85
2021/12/10 19:06:16;;;;;;;1.60;1.50;;;;;;;16.22;49.97;93720.13;10664452;27;20061;-85
2021/12/10 19:11:28;;;;;;;3.47;1.45;;;;;;;16.21;49.89;93721.97;10664806;27;20043;-85
2021/12/10 19:16:38;;;;;;;2.22;1.40;;;;;;;16.19;50.17;93734.41;10645941;27;20453;-85
2021/12/10 19:21:51;;;;;;;1.40;1.30;;;;;;;16.19;50.08;93747.44;10664478;27;20070;-85
2021/12/10 19:27:19;;;;;;;2.08;1.73;;;;;;;16.18;50.23;93760.69;10663943;27;20035;-77
2021/12/10 19:32:29;;;;;;;3.08;1.73;;;;;;;16.18;49.97;93771.09;10620088;27;20061;-73
2021/12/10 19:37:42;;;;;;;2.78;1.80;;;;;;;16.18;49.92;93758.88;10664052;27;20058;-74
2021/12/10 19:42:51;;;;;;;2.15;1.83;;;;;;;16.17;50.16;93772.16;10664638;27;20103;-73
2021/12/10 19:48:04;;;;;;;2.38;2.17;;;;;;;16.16;49.88;93778.38;10664372;27;20035;-73
2021/12/10 19:53:13;;;;;;;3.60;2.25;;;;;;;16.13;49.94;93793.47;10645554;27;20035;-74
2021/12/10 19:58:20;;;;;;;4.68;2.08;;;;;;;16.14;49.96;93794.25;10630434;27;20054;-73
2021/12/10 20:03:30;;;;;;;;;;;;;;;16.13;49.94;93809.09;10653755;27;20053;-73
2021/12/10 20:08:37;;;;;;;3.67;2.17;;;;;;;16.13;49.75;93816.13;10671435;27;20388;-74
2021/12/10 20:13:51;;;;;;;4.82;2.53;;;;;;;16.12;49.76;93830.94;10671332;27;20042;-73
2021/12/10 20:18:59;;;;;;;2.40;2.17;;;;;;;16.09;49.83;93839.22;10670808;27;20065;-74
2021/12/10 20:24:23;;;;;;;3.30;2.30;;;;;;;16.10;49.90;93859.03;10652707;27;20038;-81
2021/12/10 20:29:30;;;;;;;3.40;2.55;;;;;;;16.11;49.77;93855.41;10652286;27;20042;-73
2021/12/10 20:34:40;;;;;;;4.03;2.85;;;;;;;16.10;49.70;93869.44;10670216;27;20047;-74
2021/12/10 20:39:55;;;;;;;3.65;2.55;;;;;;;16.09;49.87;93880.09;10651994;27;20046;-73
2021/12/10 20:45:05;;;;;;;4.70;3.15;;;;;;;16.09;49.80;93887.91;10669480;27;20038;-72
2021/12/10 20:50:19;;;;;;;4.35;3.22;;;;;;;16.08;49.83;93892.31;10669667;27;20504;-74
2021/12/10 20:55:26;;;;;;;5.53;3.50;;;;;;;16.09;50.23;93893.09;10631266;27;20145;-84
2021/12/10 21:00:33;;;;;;;;;;;;;;;16.09;50.03;93913.94;10641297;27;20039;-84
2021/12/10 21:05:45;;;;;;;7.45;3.85;;;;;;;16.09;50.06;93914.69;10654996;27;19946;-84
2021/12/10 21:11:02;;;;;;;6.40;3.70;;;;;;;16.06;50.13;93906.59;10632588;27;20035;-84
2021/12/10 21:16:11;;;;;;;5.87;4.13;;;;;;;16.07;50.05;93926.41;10634139;27;20046;-83
2021/12/10 21:21:17;;;;;;;5.40;3.83;;;;;;;16.04;50.18;93940.69;10635394;27;20078;-84
2021/12/10 21:26:31;;;;;;;6.93;3.70;;;;;;;16.05;50.22;93946.66;10631240;27;20051;-84
2021/12/10 21:32:03;;;;;;;7.75;4.10;;;;;;;16.04;50.14;93948.47;10649711;27;20178;-84
2021/12/10 21:42:44;;;;;;;7.90;4.50;;;;;;;16.05;49.99;93968.28;10665249;27;20050;-84
2021/12/10 21:47:47;;;;;;;6.97;4.15;;;;;;;16.06;49.88;93958.66;10645551;27;20039;-84
2021/12/10 21:52:54;;;;;;;6.97;4.32;;;;;;;16.04;49.94;93977.09;10629583;27;20039;-84
2021/12/10 21:57:58;;;;;;;7.10;4.25;;;;;;;16.05;49.94;93990.91;10665189;27;20054;-84
2021/12/10 22:03:10;;;;;;;7.05;4.63;;;;;;;16.04;49.74;93997.16;10542634;22;20056;-84
2021/12/10 22:08:18;;;;;;;11.98;4.72;;;;;;;16.05;49.70;94006.50;10536065;28;20071;-83
2021/12/10 22:13:24;;;;;;;;;;;;;;;16.04;49.74;94020.56;10519746;28;20040;-83
2021/12/10 22:18:34;;;;;;;7.00;4.32;;;;;;;16.04;49.63;94025.78;10508480;28;19956;-83
2021/12/10 22:23:38;;;;;;;9.90;5.00;;;;;;;16.01;49.81;94027.03;10493706;28;20493;-84
2021/12/10 22:28:49;;;;;;;7.10;4.50;;;;;;;16.01;49.77;94040.03;10493905;28;20740;-84
2021/12/10 22:33:54;;;;;;;7.43;4.50;;;;;;;16.01;49.77;94049.69;10494279;28;20044;-83
2021/12/10 22:39:05;;;;;;;8.32;4.55;;;;;;;15.98;49.87;94061.34;10494452;28;20044;-83
2021/12/10 22:44:18;;;;;;;7.28;4.70;;;;;;;15.98;49.73;94076.19;10495328;28;20040;-83
2021/12/10 22:49:24;;;;;;;11.90;4.68;;;;;;;15.98;49.99;94084.75;10488813;28;20052;-84
2021/12/10 22:54:40;;;;;;;8.00;4.73;;;;;;;15.98;49.74;94097.00;10494151;28;20048;-83
2021/12/10 22:59:47;;;;;;;6.53;4.25;;;;;;;15.99;49.56;94101.16;10465287;28;21180;-84
2021/12/10 23:04:51;;;;;;;;;;;;;;;15.99;49.89;94103.75;10453835;28;20041;-83
2021/12/10 23:10:00;;;;;;;8.93;4.40;;;;;;;15.96;49.98;94100.63;10453458;28;19991;-83
2021/12/10 23:15:23;;;;;;;6.78;4.55;;;;;;;15.97;49.60;94109.19;10402615;28;20050;-83
2021/12/10 23:20:52;;;;;;;8.40;4.47;;;;;;;15.96;50.07;94123.25;10452490;28;20041;-83
2021/12/10 23:25:56;;;;;;;7.68;4.53;;;;;;;15.95;49.78;94127.69;10420076;28;20095;-83
2021/12/10 23:31:06;;;;;;;6.13;4.07;;;;;;;15.94;49.88;94139.09;10435249;28;20041;-84
2021/12/10 23:36:14;;;;;;;8.27;4.53;;;;;;;15.94;50.06;94149.50;10425242;28;20079;-83
2021/12/10 23:41:30;;;;;;;8.45;4.43;;;;;;;15.95;49.74;94153.69;10442880;28;20505;-84
2021/12/10 23:47:02;;;;;;;6.07;4.13;;;;;;;15.95;49.69;94161.50;10442117;28;20045;-83
2021/12/10 23:52:10;;;;;;;6.32;3.97;;;;;;;15.95;49.85;94158.91;10425948;28;20394;-83
2021/12/10 23:57:17;;;;;;;7.55;4.35;;;;;;;15.95;49.59;94163.31;10460385;28;20402;-83
